createdAt,value
2018-07-09T00:00:45.129Z,37.21
2018-07-09T00:01:45.114Z,37.11
2018-07-09T00:02:45.237Z,37.30
2018-07-09T00:03:45.105Z,37.01
2018-07-09T00:04:45.201Z,37.80
2018-07-09T00:05:45.097Z,37.41
2018-07-09T00:06:45.068Z,37.80
2018-07-09T00:07:45.199Z,37.51
2018-07-09T00:08:45.138Z,37.01
2018-07-09T00:09:45.043Z,37.01
2018-07-09T00:10:45.162Z,37.11
2018-07-09T00:11:45.026Z,37.30
2018-07-09T00:12:45.049Z,37.21
2018-07-09T00:13:44.989Z,37.70
2018-07-09T00:14:44.991Z,37.13
2018-07-09T00:15:45.083Z,37.21
2018-07-09T00:16:45.071Z,37.21
2018-07-09T00:17:44.992Z,37.01
2018-07-09T00:18:44.953Z,37.23
2018-07-09T00:19:45.040Z,37.90
2018-07-09T00:20:44.916Z,37.23
2018-07-09T00:21:44.913Z,37.41
2018-07-09T00:22:44.931Z,37.41
2018-07-09T00:23:44.906Z,37.41
2018-07-09T00:24:44.877Z,37.43
2018-07-09T00:25:48.983Z,37.41
2018-07-09T00:26:44.870Z,37.62
2018-07-09T00:27:44.878Z,37.51
2018-07-09T00:28:44.977Z,37.52
2018-07-09T00:29:44.836Z,37.62
2018-07-09T00:30:44.894Z,37.62
2018-07-09T00:31:44.805Z,37.52
2018-07-09T00:32:44.830Z,37.52
2018-07-09T00:33:44.785Z,37.62
2018-07-09T00:34:44.774Z,37.52
2018-07-09T00:35:44.772Z,37.72
2018-07-09T00:36:44.774Z,37.52
2018-07-09T00:37:44.890Z,37.62
2018-07-09T00:38:45.836Z,37.62
2018-07-09T00:39:44.721Z,37.52
2018-07-09T00:40:44.811Z,37.52
2018-07-09T00:41:45.177Z,37.43
2018-07-09T00:42:44.738Z,37.52
2018-07-09T00:43:44.693Z,37.43
2018-07-09T00:44:44.686Z,37.52
2018-07-09T00:45:44.794Z,37.23
2018-07-09T00:46:44.756Z,37.72
2018-07-09T00:47:43.777Z,37.43
2018-07-09T00:48:44.680Z,37.03
2018-07-09T00:49:44.640Z,37.32
2018-07-09T00:50:44.724Z,37.32
2018-07-09T00:51:44.606Z,37.23
2018-07-09T00:52:44.602Z,37.72
2018-07-09T00:53:44.741Z,38.02
2018-07-09T00:54:44.701Z,37.32
2018-07-09T00:55:44.581Z,37.03
2018-07-09T00:56:44.556Z,37.03
2018-07-09T00:57:44.551Z,37.03
2018-07-09T00:58:43.542Z,37.32
2018-07-09T00:59:44.692Z,37.13
2018-07-09T01:00:44.514Z,37.05
2018-07-09T01:01:44.604Z,37.32
2018-07-09T01:02:43.597Z,37.03
2018-07-09T01:03:43.581Z,37.03
2018-07-09T01:04:44.514Z,37.82
2018-07-09T01:05:44.578Z,37.32
2018-07-09T01:06:44.449Z,37.32
2018-07-09T01:07:44.461Z,37.03
2018-07-09T01:08:46.780Z,37.23
2018-07-09T01:09:44.449Z,37.34
2018-07-09T01:10:44.420Z,37.34
2018-07-09T01:11:44.410Z,37.32
2018-07-09T01:12:44.510Z,37.32
2018-07-09T01:13:44.382Z,37.24
2018-07-09T01:14:44.419Z,37.34
2018-07-09T01:15:44.373Z,37.05
2018-07-09T01:16:44.353Z,37.15
2018-07-09T01:17:44.350Z,37.05
2018-07-09T01:18:44.462Z,37.34
2018-07-09T01:19:44.347Z,37.34
2018-07-09T01:20:44.342Z,37.05
2018-07-09T01:21:44.310Z,37.74
2018-07-09T01:22:44.423Z,37.84
2018-07-09T01:23:44.275Z,37.05
2018-07-09T01:24:44.391Z,37.45
2018-07-09T01:25:44.284Z,37.24
2018-07-09T01:26:44.259Z,37.74
2018-07-09T01:27:44.232Z,37.34
2018-07-09T01:28:44.281Z,37.45
2018-07-09T01:29:44.256Z,37.45
2018-07-09T01:30:44.312Z,37.24
2018-07-09T01:31:44.311Z,37.45
2018-07-09T01:32:44.189Z,37.45
2018-07-09T01:33:44.173Z,37.74
2018-07-09T01:34:44.168Z,37.24
2018-07-09T01:35:44.170Z,37.54
2018-07-09T01:36:44.272Z,37.84
2018-07-09T01:37:45.211Z,37.64
2018-07-09T01:38:43.231Z,37.54
2018-07-09T01:39:44.115Z,37.54
2018-07-09T01:40:44.137Z,37.45
2018-07-09T01:41:44.120Z,37.24
2018-07-09T01:42:44.081Z,37.45
2018-07-09T01:43:44.094Z,37.54
2018-07-09T01:44:44.205Z,37.54
2018-07-09T01:45:44.082Z,37.34
2018-07-09T01:46:44.049Z,37.45
2018-07-09T01:47:44.099Z,37.84
2018-07-09T01:48:44.031Z,37.34
2018-07-09T01:49:44.143Z,37.24
2018-07-09T01:50:44.146Z,37.54
2018-07-09T01:51:44.009Z,38.04
2018-07-09T01:52:43.979Z,37.26
2018-07-09T01:53:43.970Z,38.13
2018-07-09T01:54:43.961Z,38.13
2018-07-09T01:55:44.097Z,38.35
2018-07-09T01:56:44.082Z,38.13
2018-07-09T01:57:43.937Z,38.15
2018-07-09T01:58:44.057Z,38.13
2018-07-09T01:59:43.910Z,38.15
2018-07-09T02:00:43.932Z,38.23
2018-07-09T02:01:43.893Z,38.35
2018-07-09T02:02:43.887Z,38.15
2018-07-09T02:03:43.986Z,38.25
2018-07-09T02:04:43.956Z,38.15
2018-07-09T02:05:43.893Z,37.96
2018-07-09T02:06:43.846Z,37.66
2018-07-09T02:07:43.829Z,37.66
2018-07-09T02:08:43.829Z,37.66
2018-07-09T02:09:43.822Z,38.15
2018-07-09T02:10:43.833Z,37.96
2018-07-09T02:11:43.793Z,37.96
2018-07-09T02:12:43.858Z,37.94
2018-07-09T02:13:43.766Z,37.76
2018-07-09T02:14:43.771Z,38.06
2018-07-09T02:15:46.778Z,37.76
2018-07-09T02:16:43.742Z,37.85
2018-07-09T02:17:43.848Z,37.96
2018-07-09T02:18:43.720Z,37.76
2018-07-09T02:19:43.707Z,38.15
2018-07-09T02:20:43.699Z,37.56
2018-07-09T02:21:43.766Z,37.56
2018-07-09T02:22:43.801Z,37.36
2018-07-09T02:23:43.775Z,37.85
2018-07-09T02:24:43.656Z,37.66
2018-07-09T02:25:43.643Z,37.56
2018-07-09T02:26:43.642Z,37.56
2018-07-09T02:27:42.720Z,37.96
2018-07-09T02:28:43.631Z,37.85
2018-07-09T02:29:43.608Z,37.85
2018-07-09T02:30:43.730Z,37.76
2018-07-09T02:31:43.587Z,37.26
2018-07-09T02:32:43.685Z,37.66
2018-07-09T02:33:43.675Z,38.17
2018-07-09T02:34:43.550Z,37.85
2018-07-09T02:35:43.571Z,37.68
2018-07-09T02:36:42.552Z,37.26
2018-07-09T02:37:43.529Z,37.36
2018-07-09T02:38:43.536Z,37.28
2018-07-09T02:39:43.517Z,37.98
2018-07-09T02:40:43.530Z,37.28
2018-07-09T02:41:43.494Z,37.26
2018-07-09T02:42:43.480Z,37.28
2018-07-09T02:43:43.461Z,37.48
2018-07-09T02:44:43.669Z,37.48
2018-07-09T02:45:43.609Z,37.28
2018-07-09T02:46:43.437Z,37.26
2018-07-09T02:47:43.424Z,37.28
2018-07-09T02:48:43.413Z,37.38
2018-07-09T02:49:43.538Z,37.98
2018-07-09T02:50:43.431Z,37.68
2018-07-09T02:51:43.397Z,37.68
2018-07-09T02:52:43.514Z,37.98
2018-07-09T02:53:43.370Z,38.27
2018-07-09T02:54:43.352Z,37.68
2018-07-09T02:55:43.373Z,38.17
2018-07-09T02:56:43.448Z,38.76
2018-07-09T02:57:43.413Z,37.68
2018-07-09T02:58:43.408Z,38.27
2018-07-09T02:59:43.296Z,38.27
2018-07-09T03:00:43.576Z,37.77
2018-07-09T03:01:43.403Z,37.98
2018-07-09T03:02:43.570Z,38.17
2018-07-09T03:03:43.334Z,38.27
2018-07-09T03:04:43.349Z,38.27
2018-07-09T03:05:43.342Z,38.57
2018-07-09T03:06:43.326Z,38.07
2018-07-09T03:07:43.330Z,38.67
2018-07-09T03:08:42.276Z,37.98
2018-07-09T03:09:43.883Z,38.17
2018-07-09T03:10:43.293Z,38.47
2018-07-09T03:11:43.280Z,38.07
2018-07-09T03:12:43.265Z,38.47
2018-07-09T03:13:43.263Z,38.67
2018-07-09T03:14:43.222Z,38.67
2018-07-09T03:15:43.233Z,38.96
2018-07-09T03:16:43.231Z,38.96
2018-07-09T03:17:43.201Z,38.57
2018-07-09T03:18:43.183Z,38.96
2018-07-09T03:19:43.365Z,38.96
2018-07-09T03:20:43.179Z,38.57
2018-07-09T03:21:43.155Z,38.57
2018-07-09T03:22:43.159Z,38.86
2018-07-09T03:23:43.285Z,38.98
2018-07-09T03:24:43.265Z,38.67
2018-07-09T03:25:43.081Z,38.96
2018-07-09T03:26:43.108Z,38.27
2018-07-09T03:27:43.124Z,38.67
2018-07-09T03:28:46.131Z,38.96
2018-07-09T03:29:43.143Z,38.59
2018-07-09T03:30:43.067Z,38.29
2018-07-09T03:31:43.100Z,38.39
2018-07-09T03:32:43.141Z,38.68
2018-07-09T03:33:43.039Z,38.27
2018-07-09T03:34:42.942Z,38.37
2018-07-09T03:35:43.034Z,38.27
2018-07-09T03:36:43.047Z,38.49
2018-07-09T03:37:42.908Z,38.76
2018-07-09T03:38:42.985Z,38.49
2018-07-09T03:39:42.984Z,38.27
2018-07-09T03:40:43.064Z,38.39
2018-07-09T03:41:42.990Z,38.49
2018-07-09T03:42:42.975Z,38.49
2018-07-09T03:43:42.953Z,38.59
2018-07-09T03:44:42.930Z,38.68
2018-07-09T03:45:42.901Z,38.49
2018-07-09T03:46:42.955Z,38.59
2018-07-09T03:47:42.893Z,38.19
2018-07-09T03:48:46.066Z,38.68
2018-07-09T03:49:42.882Z,38.68
2018-07-09T03:50:42.892Z,38.49
2018-07-09T03:51:42.912Z,38.49
2018-07-09T03:52:42.838Z,38.68
2018-07-09T03:53:42.856Z,38.68
2018-07-09T03:54:42.975Z,38.68
2018-07-09T03:55:42.718Z,38.49
2018-07-09T03:56:42.739Z,38.68
2018-07-09T03:57:42.718Z,38.59
2018-07-09T03:58:42.758Z,38.68
2018-07-09T03:59:42.758Z,38.68
2018-07-09T04:00:42.747Z,38.68
2018-07-09T04:01:42.777Z,38.68
2018-07-09T04:02:42.980Z,38.49
2018-07-09T04:03:42.737Z,38.68
2018-07-09T04:04:42.720Z,38.88
2018-07-09T04:05:42.726Z,38.68
2018-07-09T04:06:42.718Z,38.78
2018-07-09T04:07:42.706Z,38.68
2018-07-09T04:08:42.692Z,38.78
2018-07-09T04:09:42.674Z,38.49
2018-07-09T04:10:42.579Z,38.68
2018-07-09T04:11:42.692Z,38.68
2018-07-09T04:12:42.574Z,38.39
2018-07-09T04:13:42.639Z,38.68
2018-07-09T04:14:42.675Z,38.68
2018-07-09T04:15:42.514Z,38.78
2018-07-09T04:16:42.534Z,38.68
2018-07-09T04:17:42.563Z,38.59
2018-07-09T04:18:42.558Z,38.68
2018-07-09T04:19:42.481Z,38.68
2018-07-09T04:20:42.579Z,38.49
2018-07-09T04:21:42.584Z,38.88
2018-07-09T04:22:41.544Z,38.29
2018-07-09T04:23:42.617Z,38.68
2018-07-09T04:24:42.540Z,38.68
2018-07-09T04:25:42.507Z,38.68
2018-07-09T04:26:42.543Z,38.68
2018-07-09T04:27:42.407Z,38.29
2018-07-09T04:28:42.513Z,38.68
2018-07-09T04:29:42.454Z,38.68
2018-07-09T04:30:42.473Z,38.59
2018-07-09T04:31:42.531Z,38.78
2018-07-09T04:32:41.465Z,38.70
2018-07-09T04:33:42.326Z,38.68
2018-07-09T04:34:42.443Z,38.68
2018-07-09T04:35:42.399Z,38.78
2018-07-09T04:36:42.567Z,38.49
2018-07-09T04:37:42.400Z,38.49
2018-07-09T04:38:42.372Z,38.78
2018-07-09T04:39:42.347Z,38.68
2018-07-09T04:40:42.264Z,38.88
2018-07-09T04:41:42.401Z,38.78
2018-07-09T04:42:42.326Z,38.68
2018-07-09T04:43:42.315Z,38.68
2018-07-09T04:44:42.297Z,38.49
2018-07-09T04:45:42.317Z,38.68
2018-07-09T04:46:42.330Z,38.78
2018-07-09T04:47:42.187Z,38.78
2018-07-09T04:48:42.269Z,38.88
2018-07-09T04:49:42.239Z,38.29
2018-07-09T04:50:42.339Z,38.59
2018-07-09T04:51:42.270Z,38.68
2018-07-09T04:52:42.241Z,38.59
2018-07-09T04:53:42.134Z,38.60
2018-07-09T04:54:42.115Z,38.49
2018-07-09T04:55:42.224Z,38.68
2018-07-09T04:56:42.205Z,38.49
2018-07-09T04:57:42.120Z,38.59
2018-07-09T04:58:42.164Z,38.68
2018-07-09T04:59:42.178Z,38.68
2018-07-09T05:00:42.335Z,38.68
2018-07-09T05:01:42.062Z,38.59
2018-07-09T05:02:42.064Z,38.68
2018-07-09T05:03:42.119Z,38.59
2018-07-09T05:04:42.145Z,38.78
2018-07-09T05:05:42.640Z,38.68
2018-07-09T05:06:42.125Z,38.68
2018-07-09T05:07:42.047Z,38.68
2018-07-09T05:08:42.053Z,38.68
2018-07-09T05:09:41.974Z,38.78
2018-07-09T05:10:41.952Z,38.68
2018-07-09T05:11:42.045Z,38.68
2018-07-09T05:12:41.963Z,38.49
2018-07-09T05:13:41.929Z,38.49
2018-07-09T05:14:42.000Z,38.68
2018-07-09T05:15:41.916Z,38.59
2018-07-09T05:16:42.117Z,38.49
2018-07-09T05:17:42.025Z,38.78
2018-07-09T05:18:41.873Z,38.49
2018-07-09T05:19:42.079Z,38.59
2018-07-09T05:20:41.962Z,38.68
2018-07-09T05:21:40.943Z,38.68
2018-07-09T05:22:41.998Z,38.68
2018-07-09T05:23:41.905Z,38.49
2018-07-09T05:24:41.828Z,38.49
2018-07-09T05:25:41.872Z,38.78
2018-07-09T05:26:41.797Z,38.70
2018-07-09T05:27:41.878Z,38.59
2018-07-09T05:28:41.766Z,38.49
2018-07-09T05:29:41.787Z,38.59
2018-07-09T05:30:41.761Z,38.98
2018-07-09T05:31:41.796Z,38.88
2018-07-09T05:32:43.395Z,39.00
2018-07-09T05:33:41.851Z,38.70
2018-07-09T05:34:41.719Z,38.78
2018-07-09T05:35:41.819Z,38.59
2018-07-09T05:36:41.803Z,38.60
2018-07-09T05:37:41.713Z,39.08
2018-07-09T05:38:41.673Z,39.00
2018-07-09T05:39:41.968Z,38.98
2018-07-09T05:40:41.707Z,38.88
2018-07-09T05:41:41.649Z,38.98
2018-07-09T05:42:41.672Z,38.68
2018-07-09T05:43:41.788Z,38.78
2018-07-09T05:44:41.721Z,38.68
2018-07-09T05:45:41.703Z,39.18
2018-07-09T05:46:41.652Z,39.00
2018-07-09T05:47:41.615Z,38.88
2018-07-09T05:48:41.581Z,38.78
2018-07-09T05:49:41.554Z,39.58
2018-07-09T05:50:41.540Z,39.40
2018-07-09T05:51:41.551Z,39.48
2018-07-09T05:52:41.779Z,39.08
2018-07-09T05:53:41.792Z,39.08
2018-07-09T05:54:41.625Z,38.98
2018-07-09T05:55:41.491Z,39.08
2018-07-09T05:56:41.515Z,38.88
2018-07-09T05:57:41.637Z,39.67
2018-07-09T05:58:41.473Z,39.67
2018-07-09T05:59:41.567Z,39.59
2018-07-09T06:00:41.438Z,39.37
2018-07-09T06:01:41.435Z,39.97
2018-07-09T06:02:41.565Z,39.67
2018-07-09T06:03:41.427Z,39.48
2018-07-09T06:04:41.438Z,39.58
2018-07-09T06:05:41.439Z,40.07
2018-07-09T06:06:41.532Z,39.58
2018-07-09T06:07:41.527Z,39.48
2018-07-09T06:08:41.368Z,39.77
2018-07-09T06:09:41.365Z,39.58
2018-07-09T06:10:44.643Z,39.48
2018-07-09T06:11:41.331Z,39.48
2018-07-09T06:12:41.371Z,39.37
2018-07-09T06:13:41.411Z,39.48
2018-07-09T06:14:41.314Z,39.50
2018-07-09T06:15:41.294Z,39.40
2018-07-09T06:16:41.408Z,39.59
2018-07-09T06:17:41.395Z,39.58
2018-07-09T06:18:41.290Z,39.67
2018-07-09T06:19:41.415Z,39.67
2018-07-09T06:20:41.233Z,39.58
2018-07-09T06:21:41.232Z,39.77
2018-07-09T06:22:41.217Z,39.58
2018-07-09T06:23:41.289Z,39.87
2018-07-09T06:24:41.340Z,39.87
2018-07-09T06:25:40.197Z,39.87
2018-07-09T06:26:41.180Z,40.37
2018-07-09T06:27:41.207Z,40.17
2018-07-09T06:28:41.186Z,39.87
2018-07-09T06:29:41.161Z,40.17
2018-07-09T06:30:41.196Z,39.97
2018-07-09T06:31:41.204Z,40.07
2018-07-09T06:32:41.267Z,40.37
2018-07-09T06:33:41.144Z,39.58
2018-07-09T06:34:41.110Z,39.97
2018-07-09T06:35:41.095Z,39.48
2018-07-09T06:36:41.071Z,39.58
2018-07-09T06:37:41.073Z,39.48
2018-07-09T06:38:41.094Z,39.48
2018-07-09T06:39:41.057Z,39.67
2018-07-09T06:40:41.028Z,39.37
2018-07-09T06:41:41.024Z,39.67
2018-07-09T06:42:41.035Z,39.67
2018-07-09T06:43:41.047Z,39.67
2018-07-09T06:44:41.173Z,39.67
2018-07-09T06:45:40.984Z,39.67
2018-07-09T06:46:40.968Z,39.28
2018-07-09T06:47:42.177Z,39.28
2018-07-09T06:48:41.099Z,39.87
2018-07-09T06:49:40.947Z,39.77
2018-07-09T06:50:40.940Z,38.78
2018-07-09T06:51:41.913Z,38.78
2018-07-09T06:52:41.207Z,38.78
2018-07-09T06:53:41.080Z,38.98
2018-07-09T06:54:41.054Z,38.88
2018-07-09T06:55:40.884Z,39.87
2018-07-09T06:56:40.960Z,39.58
2018-07-09T06:57:42.049Z,39.48
2018-07-09T06:58:40.933Z,39.67
2018-07-09T06:59:40.851Z,39.28
2018-07-09T07:00:40.929Z,39.37
2018-07-09T07:01:41.079Z,39.18
2018-07-09T07:02:40.820Z,39.87
2018-07-09T07:03:40.849Z,39.87
2018-07-09T07:04:40.892Z,39.18
2018-07-09T07:05:40.812Z,39.87
2018-07-09T07:06:40.778Z,39.87
2018-07-09T07:07:40.763Z,39.18
2018-07-09T07:08:40.824Z,38.78
2018-07-09T07:09:40.906Z,38.59
2018-07-09T07:10:41.043Z,38.78
2018-07-09T07:11:40.723Z,38.78
2018-07-09T07:12:40.721Z,38.68
2018-07-09T07:13:40.868Z,39.87
2018-07-09T07:14:40.723Z,39.28
2018-07-09T07:15:40.809Z,39.28
2018-07-09T07:16:40.679Z,39.58
2018-07-09T07:17:40.812Z,39.97
2018-07-09T07:18:40.794Z,39.67
2018-07-09T07:19:40.653Z,39.48
2018-07-09T07:20:40.620Z,39.37
2018-07-09T07:21:40.763Z,39.58
2018-07-09T07:22:40.663Z,39.28
2018-07-09T07:23:40.623Z,38.39
2018-07-09T07:24:40.674Z,37.70
2018-07-09T07:25:40.952Z,37.20
2018-07-09T07:26:40.789Z,37.30
2018-07-09T07:27:40.551Z,37.10
2018-07-09T07:28:40.579Z,37.00
2018-07-09T07:29:40.531Z,36.61
2018-07-09T07:30:40.537Z,36.82
2018-07-09T07:31:40.695Z,37.22
2018-07-09T07:32:40.634Z,37.04
2018-07-09T07:33:40.716Z,37.13
2018-07-09T07:34:40.625Z,37.34
2018-07-09T07:35:40.507Z,37.43
2018-07-09T07:36:40.534Z,37.24
2018-07-09T07:37:40.584Z,37.15
2018-07-09T07:38:40.658Z,38.64
2018-07-09T07:39:40.490Z,37.75
2018-07-09T07:40:40.761Z,37.75
2018-07-09T07:41:40.437Z,37.75
2018-07-09T07:42:40.398Z,38.84
2018-07-09T07:43:40.550Z,37.87
2018-07-09T07:44:40.518Z,37.87
2018-07-09T07:45:40.556Z,37.96
2018-07-09T07:46:40.443Z,37.87
2018-07-09T07:47:40.370Z,37.47
2018-07-09T07:48:40.337Z,37.77
2018-07-09T07:49:40.374Z,36.88
2018-07-09T07:50:40.536Z,36.40
2018-07-09T07:51:40.424Z,37.59
2018-07-09T07:52:40.506Z,37.21
2018-07-09T07:53:40.392Z,38.10
2018-07-09T07:54:40.456Z,37.90
2018-07-09T07:55:40.269Z,38.10
2018-07-09T07:56:40.383Z,38.22
2018-07-09T07:57:40.371Z,39.01
2018-07-09T07:58:40.355Z,38.62
2018-07-09T07:59:40.391Z,39.11
2018-07-09T08:00:40.281Z,38.71
2018-07-09T08:01:40.313Z,39.01
2018-07-09T08:02:40.894Z,38.92
2018-07-09T08:03:40.195Z,39.01
2018-07-09T08:04:40.221Z,38.42
2018-07-09T08:05:40.193Z,38.62
2018-07-09T08:06:40.163Z,39.11
2018-07-09T08:07:40.154Z,39.00
2018-07-09T08:08:40.313Z,39.01
2018-07-09T08:09:40.178Z,39.41
2018-07-09T08:10:40.108Z,39.01
2018-07-09T08:11:48.560Z,39.11
2018-07-09T08:13:40.132Z,39.11
2018-07-09T08:14:40.194Z,39.39
2018-07-09T08:15:40.212Z,39.19
2018-07-09T08:16:40.243Z,39.49
2018-07-09T08:17:40.042Z,38.90
2018-07-09T08:18:40.080Z,38.60
2018-07-09T08:19:40.116Z,38.40
2018-07-09T08:20:40.005Z,38.30
2018-07-09T08:21:39.985Z,37.90
2018-07-09T08:22:39.995Z,37.98
2018-07-09T08:23:40.151Z,38.09
2018-07-09T08:24:40.017Z,37.81
2018-07-09T08:25:40.177Z,37.88
2018-07-09T08:26:41.301Z,37.88
2018-07-09T08:27:40.098Z,38.58
2018-07-09T08:28:39.917Z,38.28
2018-07-09T08:29:40.160Z,38.09
2018-07-09T08:30:39.916Z,38.68
2018-07-09T08:31:39.873Z,37.19
2018-07-09T08:32:39.887Z,37.59
2018-07-09T08:33:39.866Z,37.57
2018-07-09T08:34:40.129Z,37.67
2018-07-09T08:35:39.890Z,37.47
2018-07-09T08:36:39.838Z,37.27
2018-07-09T08:37:39.821Z,37.17
2018-07-09T08:38:39.872Z,37.27
2018-07-09T08:39:39.839Z,37.47
2018-07-09T08:40:39.876Z,37.17
2018-07-09T08:41:39.955Z,37.47
2018-07-09T08:42:39.782Z,37.27
2018-07-09T08:43:39.857Z,37.27
2018-07-09T08:44:39.803Z,37.47
2018-07-09T08:45:38.912Z,37.47
2018-07-09T08:46:39.902Z,37.37
2018-07-09T08:47:39.865Z,37.27
2018-07-09T08:48:39.698Z,36.98
2018-07-09T08:49:39.881Z,37.27
2018-07-09T08:50:39.793Z,37.27
2018-07-09T08:51:39.706Z,37.67
2018-07-09T08:52:39.792Z,37.17
2018-07-09T08:53:39.698Z,37.17
2018-07-09T08:54:39.679Z,37.47
2018-07-09T08:55:39.648Z,37.37
2018-07-09T08:56:39.634Z,37.47
2018-07-09T08:57:39.710Z,37.17
2018-07-09T08:58:39.779Z,37.37
2018-07-09T08:59:39.638Z,37.26
2018-07-09T09:00:39.612Z,37.26
2018-07-09T09:01:39.685Z,37.35
2018-07-09T09:02:39.633Z,37.15
2018-07-09T09:03:39.626Z,37.45
2018-07-09T09:04:39.671Z,37.26
2018-07-09T09:05:39.547Z,37.05
2018-07-09T09:06:39.621Z,37.45
2018-07-09T09:07:39.509Z,37.15
2018-07-09T09:08:39.527Z,36.96
2018-07-09T09:09:39.582Z,37.35
2018-07-09T09:10:39.521Z,37.85
2018-07-09T09:11:39.484Z,37.05
2018-07-09T09:12:39.485Z,37.35
2018-07-09T09:13:39.438Z,36.46
2018-07-09T09:14:39.661Z,36.86
2018-07-09T09:15:39.451Z,36.94
2018-07-09T09:16:39.498Z,35.67
2018-07-09T09:17:39.448Z,36.86
2018-07-09T09:18:39.437Z,36.66
2018-07-09T09:19:39.424Z,36.48
2018-07-09T09:20:39.379Z,37.07
2018-07-09T09:21:39.418Z,37.47
2018-07-09T09:22:39.421Z,37.49
2018-07-09T09:23:39.380Z,37.69
2018-07-09T09:24:39.538Z,36.99
2018-07-09T09:25:39.554Z,37.29
2018-07-09T09:26:39.446Z,37.41
2018-07-09T09:27:39.505Z,37.01
2018-07-09T09:28:39.403Z,36.91
2018-07-09T09:29:39.328Z,37.11
2018-07-09T09:30:39.423Z,37.21
2018-07-09T09:31:39.451Z,37.21
2018-07-09T09:32:39.255Z,37.21
2018-07-09T09:33:41.246Z,37.01
2018-07-09T09:34:39.262Z,37.92
2018-07-09T09:35:39.351Z,38.52
2018-07-09T09:36:39.224Z,38.42
2018-07-09T09:37:39.197Z,37.92
2018-07-09T09:38:39.288Z,37.82
2018-07-09T09:39:39.326Z,38.04
2018-07-09T09:40:39.204Z,37.74
2018-07-09T09:41:39.164Z,37.94
2018-07-09T09:42:39.274Z,38.34
2018-07-09T09:43:39.214Z,37.92
2018-07-09T09:44:39.157Z,37.92
2018-07-09T09:45:39.124Z,38.12
2018-07-09T09:46:39.112Z,38.12
2018-07-09T09:47:39.237Z,38.42
2018-07-09T09:48:39.284Z,37.82
2018-07-09T09:49:39.085Z,37.62
2018-07-09T09:50:39.058Z,37.51
2018-07-09T09:51:39.053Z,36.81
2018-07-09T09:52:39.113Z,37.21
2018-07-09T09:53:39.179Z,37.41
2018-07-09T09:54:39.118Z,37.30
2018-07-09T09:55:39.111Z,37.01
2018-07-09T09:56:39.005Z,37.01
2018-07-09T09:57:40.298Z,36.99
2018-07-09T09:58:39.149Z,36.69
2018-07-09T09:59:38.013Z,37.09
2018-07-09T10:00:39.182Z,36.60
2018-07-09T10:01:38.965Z,36.90
2018-07-09T10:02:38.944Z,36.90
2018-07-09T10:03:38.958Z,36.38
2018-07-09T10:04:38.917Z,36.88
2018-07-09T10:05:39.104Z,36.58
2018-07-09T10:06:39.521Z,35.78
2018-07-09T10:07:39.229Z,35.90
2018-07-09T10:08:39.051Z,36.22
2018-07-09T10:09:38.885Z,37.11
2018-07-09T10:10:43.637Z,37.21
2018-07-09T10:11:39.040Z,37.23
2018-07-09T10:12:38.985Z,37.52
2018-07-09T10:13:39.077Z,38.14
2018-07-09T10:14:38.855Z,37.84
2018-07-09T10:15:38.975Z,38.45
2018-07-09T10:16:38.863Z,37.96
2018-07-09T10:17:38.808Z,38.47
2018-07-09T10:18:38.982Z,38.77
2018-07-09T10:19:38.778Z,38.57
2018-07-09T10:20:38.785Z,38.69
2018-07-09T10:21:38.835Z,38.89
2018-07-09T10:22:38.890Z,39.59
2018-07-09T10:23:38.933Z,39.21
2018-07-09T10:24:38.839Z,39.21
2018-07-09T10:25:38.750Z,39.90
2018-07-09T10:26:38.811Z,40.10
2018-07-09T10:27:38.703Z,39.70
2018-07-09T10:28:38.674Z,39.69
2018-07-09T10:29:38.654Z,39.61
2018-07-09T10:30:38.747Z,39.78
2018-07-09T10:31:38.659Z,39.09
2018-07-09T10:32:38.720Z,39.39
2018-07-09T10:33:38.752Z,38.99
2018-07-09T10:34:38.612Z,39.18
2018-07-09T10:35:38.603Z,39.69
2018-07-09T10:36:38.684Z,39.69
2018-07-09T10:37:38.737Z,38.99
2018-07-09T10:38:38.582Z,40.66
2018-07-09T10:39:38.623Z,39.69
2018-07-09T10:40:38.610Z,38.37
2018-07-09T10:41:38.578Z,37.68
2018-07-09T10:42:38.528Z,38.37
2018-07-09T10:43:38.520Z,38.57
2018-07-09T10:44:38.503Z,38.45
2018-07-09T10:45:38.630Z,37.66
2018-07-09T10:46:38.471Z,38.45
2018-07-09T10:47:38.461Z,37.45
2018-07-09T10:48:38.667Z,37.45
2018-07-09T10:49:38.533Z,37.64
2018-07-09T10:50:38.445Z,37.74
2018-07-09T10:51:40.606Z,38.34
2018-07-09T10:52:38.422Z,37.94
2018-07-09T10:53:38.430Z,37.64
2018-07-09T10:54:38.385Z,38.02
2018-07-09T10:55:38.383Z,37.82
2018-07-09T10:56:38.384Z,37.23
2018-07-09T10:57:38.359Z,37.41
2018-07-09T10:58:38.501Z,37.21
2018-07-09T10:59:38.357Z,37.21
2018-07-09T11:00:38.413Z,36.10
2018-07-09T11:01:38.431Z,36.30
2018-07-09T11:02:38.302Z,37.41
2018-07-09T11:03:38.744Z,36.30
2018-07-09T11:04:38.409Z,37.09
2018-07-09T11:05:38.890Z,37.17
2018-07-09T11:06:38.441Z,37.57
2018-07-09T11:07:38.281Z,37.87
2018-07-09T11:08:38.257Z,37.47
2018-07-09T11:09:38.379Z,37.26
2018-07-09T11:10:38.243Z,37.26
2018-07-09T11:11:38.220Z,37.15
2018-07-09T11:12:38.194Z,37.43
2018-07-09T11:13:38.544Z,36.96
2018-07-09T11:14:38.373Z,37.04
2018-07-09T11:15:38.332Z,36.15
2018-07-09T11:16:38.187Z,36.43
2018-07-09T11:17:38.939Z,37.02
2018-07-09T11:18:38.259Z,37.32
2018-07-09T11:19:38.270Z,36.62
2018-07-09T11:20:38.111Z,36.31
2018-07-09T11:21:38.186Z,36.80
2018-07-09T11:22:38.220Z,35.02
2018-07-09T11:23:38.100Z,35.02
2018-07-09T11:24:38.122Z,35.22
2018-07-09T11:25:38.065Z,35.32
2018-07-09T11:26:38.079Z,35.21
2018-07-09T11:27:38.041Z,34.41
2018-07-09T11:28:38.048Z,34.41
2018-07-09T11:29:38.033Z,35.11
2018-07-09T11:30:38.123Z,34.71
2018-07-09T11:31:38.117Z,34.81
2018-07-09T11:32:38.017Z,34.81
2018-07-09T11:33:38.215Z,35.11
2018-07-09T11:34:37.963Z,35.11
2018-07-09T11:35:38.133Z,34.30
2018-07-09T11:36:37.969Z,34.89
2018-07-09T11:37:38.069Z,34.79
2018-07-09T11:38:37.926Z,34.30
2018-07-09T11:39:38.046Z,34.30
2018-07-09T11:40:37.899Z,34.48
2018-07-09T11:41:37.917Z,34.18
2018-07-09T11:42:37.894Z,33.98
2018-07-09T11:43:37.886Z,33.79
2018-07-09T11:44:37.914Z,33.20
2018-07-09T11:45:37.932Z,34.08
2018-07-09T11:46:37.898Z,34.48
2018-07-09T11:47:37.966Z,34.58
2018-07-09T11:48:37.870Z,34.58
2018-07-09T11:49:38.370Z,34.67
2018-07-09T11:50:37.822Z,34.58
2018-07-09T11:51:37.827Z,33.89
2018-07-09T11:52:37.785Z,33.98
2018-07-09T11:53:37.870Z,34.58
2018-07-09T11:54:37.774Z,34.17
2018-07-09T11:55:37.772Z,34.95
2018-07-09T11:56:37.778Z,34.78
2018-07-09T11:57:37.916Z,34.36
2018-07-09T11:58:37.803Z,34.46
2018-07-09T11:59:37.713Z,34.06
2018-07-09T12:00:37.819Z,34.36
2018-07-09T12:01:37.854Z,34.36
2018-07-09T12:02:37.693Z,34.06
2018-07-09T12:03:37.694Z,34.17
2018-07-09T12:04:37.826Z,34.17
2018-07-09T12:05:37.750Z,34.27
2018-07-09T12:06:37.902Z,33.67
2018-07-09T12:07:37.644Z,33.97
2018-07-09T12:08:37.765Z,34.78
2018-07-09T12:09:37.676Z,33.98
2018-07-09T12:10:37.696Z,34.38
2018-07-09T12:11:37.612Z,34.58
2018-07-09T12:12:37.612Z,34.58
2018-07-09T12:13:37.693Z,34.28
2018-07-09T12:14:37.624Z,35.17
2018-07-09T12:15:37.680Z,34.99
2018-07-09T12:16:37.829Z,35.68
2018-07-09T12:17:37.652Z,35.28
2018-07-09T12:18:37.527Z,35.68
2018-07-09T12:19:37.551Z,35.78
2018-07-09T12:20:38.088Z,35.28
2018-07-09T12:21:37.669Z,35.28
2018-07-09T12:22:37.683Z,35.49
2018-07-09T12:23:37.567Z,35.76
2018-07-09T12:24:37.544Z,35.76
2018-07-09T12:25:38.697Z,35.47
2018-07-09T12:26:37.452Z,35.07
2018-07-09T12:27:37.551Z,35.27
2018-07-09T12:28:37.436Z,35.37
2018-07-09T12:29:37.415Z,35.25
2018-07-09T12:30:37.830Z,35.55
2018-07-09T12:31:37.542Z,35.75
2018-07-09T12:32:37.395Z,35.64
2018-07-09T12:33:37.522Z,35.25
2018-07-09T12:34:37.383Z,34.95
2018-07-09T12:35:37.484Z,34.86
2018-07-09T12:36:37.697Z,35.45
2018-07-09T12:37:37.492Z,35.25
2018-07-09T12:38:37.459Z,34.86
2018-07-09T12:39:37.425Z,34.74
2018-07-09T12:40:37.368Z,34.15
2018-07-09T12:41:37.318Z,34.46
2018-07-09T12:42:37.454Z,34.17
2018-07-09T12:43:37.408Z,33.97
2018-07-09T12:44:37.385Z,34.06
2018-07-09T12:45:37.255Z,35.15
2018-07-09T12:46:37.362Z,34.97
2018-07-09T12:47:37.344Z,35.25
2018-07-09T12:48:37.295Z,36.16
2018-07-09T12:49:37.390Z,34.58
2018-07-09T12:50:37.393Z,35.07
2018-07-09T12:51:37.231Z,35.68
2018-07-09T12:52:37.299Z,35.98
2018-07-09T12:53:37.279Z,35.28